sensor_id;sensor_type;location;lat;lon;timestamp;P1;durP1;ratioP1;P2;durP2;ratioP2
29662;SDS011;16578;53.266;7.920;2022-11-25T00:00:26;20.05;;;11.20;;
29662;SDS011;16578;53.266;7.920;2022-11-25T00:02:52;18.60;;;9.80;;
29662;SDS011;16578;53.266;7.920;2022-11-25T00:05:17;20.50;;;10.02;;
29662;SDS011;16578;53.266;7.920;2022-11-25T00:07:43;15.68;;;8.75;;
29662;SDS011;16578;53.266;7.920;2022-11-25T00:10:09;23.48;;;10.65;;
29662;SDS011;16578;53.266;7.920;2022-11-25T00:12:34;20.27;;;9.18;;
29662;SDS011;16578;53.266;7.920;2022-11-25T00:15:00;24.10;;;10.98;;
29662;SDS011;16578;53.266;7.920;2022-11-25T00:17:25;19.13;;;9.82;;
29662;SDS011;16578;53.266;7.920;2022-11-25T00:19:51;19.75;;;10.07;;
29662;SDS011;16578;53.266;7.920;2022-11-25T00:22:16;18.88;;;8.88;;
29662;SDS011;16578;53.266;7.920;2022-11-25T00:24:42;21.45;;;9.88;;
29662;SDS011;16578;53.266;7.920;2022-11-25T00:27:07;18.60;;;9.65;;
29662;SDS011;16578;53.266;7.920;2022-11-25T00:29:33;21.10;;;10.40;;
29662;SDS011;16578;53.266;7.920;2022-11-25T00:31:59;17.42;;;9.05;;
29662;SDS011;16578;53.266;7.920;2022-11-25T00:34:24;18.35;;;10.13;;
29662;SDS011;16578;53.266;7.920;2022-11-25T00:36:50;17.45;;;9.20;;
29662;SDS011;16578;53.266;7.920;2022-11-25T00:39:17;19.27;;;9.48;;
29662;SDS011;16578;53.266;7.920;2022-11-25T00:41:44;25.58;;;9.80;;
29662;SDS011;16578;53.266;7.920;2022-11-25T00:44:28;16.52;;;9.68;;
29662;SDS011;16578;53.266;7.920;2022-11-25T00:47:00;17.83;;;9.18;;
29662;SDS011;16578;53.266;7.920;2022-11-25T00:49:27;20.60;;;8.77;;
29662;SDS011;16578;53.266;7.920;2022-11-25T00:51:53;20.40;;;8.82;;
29662;SDS011;16578;53.266;7.920;2022-11-25T00:54:19;22.48;;;8.63;;
29662;SDS011;16578;53.266;7.920;2022-11-25T00:56:44;17.73;;;8.55;;
29662;SDS011;16578;53.266;7.920;2022-11-25T00:59:10;14.05;;;8.07;;
29662;SDS011;16578;53.266;7.920;2022-11-25T01:01:35;17.75;;;7.85;;
29662;SDS011;16578;53.266;7.920;2022-11-25T01:04:01;16.23;;;7.82;;
29662;SDS011;16578;53.266;7.920;2022-11-25T01:06:27;18.10;;;8.60;;
29662;SDS011;16578;53.266;7.920;2022-11-25T01:08:53;16.67;;;8.20;;
29662;SDS011;16578;53.266;7.920;2022-11-25T01:11:19;19.90;;;8.70;;
29662;SDS011;16578;53.266;7.920;2022-11-25T01:13:47;18.05;;;8.35;;
29662;SDS011;16578;53.266;7.920;2022-11-25T01:16:16;15.25;;;7.18;;
29662;SDS011;16578;53.266;7.920;2022-11-25T01:18:43;14.50;;;7.13;;
29662;SDS011;16578;53.266;7.920;2022-11-25T01:21:11;17.00;;;8.15;;
29662;SDS011;16578;53.266;7.920;2022-11-25T01:23:39;18.98;;;8.23;;
29662;SDS011;16578;53.266;7.920;2022-11-25T01:26:06;20.83;;;8.60;;
29662;SDS011;16578;53.266;7.920;2022-11-25T01:28:35;12.75;;;7.55;;
29662;SDS011;16578;53.266;7.920;2022-11-25T01:31:02;22.08;;;9.13;;
29662;SDS011;16578;53.266;7.920;2022-11-25T01:33:30;12.93;;;7.35;;
29662;SDS011;16578;53.266;7.920;2022-11-25T01:36:04;15.38;;;7.15;;
29662;SDS011;16578;53.266;7.920;2022-11-25T01:38:31;14.70;;;6.85;;
29662;SDS011;16578;53.266;7.920;2022-11-25T01:40:58;19.60;;;7.75;;
29662;SDS011;16578;53.266;7.920;2022-11-25T01:43:25;15.80;;;6.22;;
29662;SDS011;16578;53.266;7.920;2022-11-25T01:45:52;16.27;;;7.32;;
29662;SDS011;16578;53.266;7.920;2022-11-25T01:48:21;20.08;;;7.03;;
29662;SDS011;16578;53.266;7.920;2022-11-25T01:50:52;14.70;;;7.05;;
29662;SDS011;16578;53.266;7.920;2022-11-25T01:53:19;14.40;;;6.80;;
29662;SDS011;16578;53.266;7.920;2022-11-25T01:55:53;11.10;;;6.63;;
29662;SDS011;16578;53.266;7.920;2022-11-25T01:58:25;12.52;;;5.95;;
29662;SDS011;16578;53.266;7.920;2022-11-25T02:00:54;15.07;;;6.75;;
29662;SDS011;16578;53.266;7.920;2022-11-25T02:03:21;22.50;;;6.53;;
29662;SDS011;16578;53.266;7.920;2022-11-25T02:08:34;16.58;;;5.50;;
29662;SDS011;16578;53.266;7.920;2022-11-25T02:11:00;12.18;;;6.30;;
29662;SDS011;16578;53.266;7.920;2022-11-25T02:13:28;12.90;;;5.90;;
29662;SDS011;16578;53.266;7.920;2022-11-25T02:15:55;11.02;;;5.30;;
29662;SDS011;16578;53.266;7.920;2022-11-25T02:18:21;12.27;;;5.30;;
29662;SDS011;16578;53.266;7.920;2022-11-25T02:20:47;14.20;;;5.15;;
29662;SDS011;16578;53.266;7.920;2022-11-25T02:25:55;12.40;;;5.43;;
29662;SDS011;16578;53.266;7.920;2022-11-25T02:28:22;14.40;;;6.10;;
29662;SDS011;16578;53.266;7.920;2022-11-25T02:30:50;14.60;;;5.80;;
29662;SDS011;16578;53.266;7.920;2022-11-25T02:33:16;13.13;;;5.18;;
29662;SDS011;16578;53.266;7.920;2022-11-25T02:35:44;15.05;;;5.68;;
29662;SDS011;16578;53.266;7.920;2022-11-25T02:38:14;16.48;;;6.15;;
29662;SDS011;16578;53.266;7.920;2022-11-25T02:40:51;18.85;;;5.90;;
29662;SDS011;16578;53.266;7.920;2022-11-25T02:43:25;16.45;;;5.63;;
29662;SDS011;16578;53.266;7.920;2022-11-25T02:48:22;14.68;;;4.85;;
29662;SDS011;16578;53.266;7.920;2022-11-25T02:50:49;11.38;;;5.13;;
29662;SDS011;16578;53.266;7.920;2022-11-25T02:53:15;11.68;;;4.93;;
29662;SDS011;16578;53.266;7.920;2022-11-25T02:55:41;15.75;;;5.80;;
29662;SDS011;16578;53.266;7.920;2022-11-25T02:58:06;9.98;;;4.68;;
29662;SDS011;16578;53.266;7.920;2022-11-25T03:00:32;10.60;;;4.88;;
29662;SDS011;16578;53.266;7.920;2022-11-25T03:02:58;13.23;;;4.60;;
29662;SDS011;16578;53.266;7.920;2022-11-25T03:05:24;14.57;;;5.30;;
29662;SDS011;16578;53.266;7.920;2022-11-25T03:07:49;11.65;;;5.30;;
29662;SDS011;16578;53.266;7.920;2022-11-25T03:10:15;14.82;;;5.50;;
29662;SDS011;16578;53.266;7.920;2022-11-25T03:12:41;15.57;;;5.57;;
29662;SDS011;16578;53.266;7.920;2022-11-25T03:15:06;13.77;;;4.70;;
29662;SDS011;16578;53.266;7.920;2022-11-25T03:17:32;14.90;;;5.55;;
29662;SDS011;16578;53.266;7.920;2022-11-25T03:19:58;16.65;;;5.90;;
29662;SDS011;16578;53.266;7.920;2022-11-25T03:22:24;11.77;;;4.43;;
29662;SDS011;16578;53.266;7.920;2022-11-25T03:24:49;15.90;;;4.80;;
29662;SDS011;16578;53.266;7.920;2022-11-25T03:27:15;10.85;;;4.57;;
29662;SDS011;16578;53.266;7.920;2022-11-25T03:29:41;11.68;;;5.10;;
29662;SDS011;16578;53.266;7.920;2022-11-25T03:32:06;9.57;;;5.32;;
29662;SDS011;16578;53.266;7.920;2022-11-25T03:34:32;12.63;;;4.72;;
29662;SDS011;16578;53.266;7.920;2022-11-25T03:36:57;10.85;;;4.47;;
29662;SDS011;16578;53.266;7.920;2022-11-25T03:39:23;14.65;;;4.68;;
29662;SDS011;16578;53.266;7.920;2022-11-25T03:41:49;12.98;;;4.82;;
29662;SDS011;16578;53.266;7.920;2022-11-25T03:44:14;11.02;;;3.88;;
29662;SDS011;16578;53.266;7.920;2022-11-25T03:46:40;14.18;;;4.65;;
29662;SDS011;16578;53.266;7.920;2022-11-25T03:49:05;14.45;;;4.13;;
29662;SDS011;16578;53.266;7.920;2022-11-25T03:51:31;11.60;;;4.70;;
29662;SDS011;16578;53.266;7.920;2022-11-25T03:53:56;12.80;;;4.40;;
29662;SDS011;16578;53.266;7.920;2022-11-25T03:56:22;11.48;;;4.78;;
29662;SDS011;16578;53.266;7.920;2022-11-25T03:58:48;10.18;;;4.47;;
29662;SDS011;16578;53.266;7.920;2022-11-25T04:01:13;10.02;;;4.30;;
29662;SDS011;16578;53.266;7.920;2022-11-25T04:03:39;12.23;;;4.43;;
29662;SDS011;16578;53.266;7.920;2022-11-25T04:06:04;7.70;;;3.67;;
29662;SDS011;16578;53.266;7.920;2022-11-25T04:08:30;17.33;;;4.90;;
29662;SDS011;16578;53.266;7.920;2022-11-25T04:10:56;8.52;;;4.03;;
29662;SDS011;16578;53.266;7.920;2022-11-25T04:13:21;8.48;;;3.97;;
29662;SDS011;16578;53.266;7.920;2022-11-25T04:15:48;10.13;;;3.92;;
29662;SDS011;16578;53.266;7.920;2022-11-25T04:18:14;12.73;;;5.30;;
29662;SDS011;16578;53.266;7.920;2022-11-25T04:20:41;12.82;;;4.35;;
29662;SDS011;16578;53.266;7.920;2022-11-25T04:23:07;13.00;;;3.85;;
29662;SDS011;16578;53.266;7.920;2022-11-25T04:25:34;14.18;;;4.53;;
29662;SDS011;16578;53.266;7.920;2022-11-25T04:28:00;10.20;;;3.55;;
29662;SDS011;16578;53.266;7.920;2022-11-25T04:30:27;10.90;;;4.18;;
29662;SDS011;16578;53.266;7.920;2022-11-25T04:32:52;10.00;;;3.67;;
29662;SDS011;16578;53.266;7.920;2022-11-25T04:35:18;12.27;;;3.95;;
29662;SDS011;16578;53.266;7.920;2022-11-25T04:37:43;13.93;;;4.25;;
29662;SDS011;16578;53.266;7.920;2022-11-25T04:40:09;21.80;;;4.78;;
29662;SDS011;16578;53.266;7.920;2022-11-25T04:42:35;8.07;;;3.40;;
29662;SDS011;16578;53.266;7.920;2022-11-25T04:45:07;12.80;;;5.03;;
29662;SDS011;16578;53.266;7.920;2022-11-25T04:47:35;10.38;;;3.53;;
29662;SDS011;16578;53.266;7.920;2022-11-25T04:50:02;10.85;;;4.15;;
29662;SDS011;16578;53.266;7.920;2022-11-25T04:52:28;13.73;;;3.85;;
29662;SDS011;16578;53.266;7.920;2022-11-25T04:54:54;12.85;;;3.80;;
29662;SDS011;16578;53.266;7.920;2022-11-25T04:57:20;9.70;;;4.03;;
29662;SDS011;16578;53.266;7.920;2022-11-25T04:59:45;13.57;;;4.10;;
29662;SDS011;16578;53.266;7.920;2022-11-25T05:04:39;12.17;;;4.73;;
29662;SDS011;16578;53.266;7.920;2022-11-25T05:09:49;10.70;;;4.43;;
29662;SDS011;16578;53.266;7.920;2022-11-25T05:12:16;12.07;;;4.15;;
29662;SDS011;16578;53.266;7.920;2022-11-25T05:14:44;7.57;;;4.43;;
29662;SDS011;16578;53.266;7.920;2022-11-25T05:17:11;12.05;;;4.22;;
29662;SDS011;16578;53.266;7.920;2022-11-25T05:19:39;11.63;;;4.57;;
29662;SDS011;16578;53.266;7.920;2022-11-25T05:22:04;11.05;;;3.83;;
29662;SDS011;16578;53.266;7.920;2022-11-25T05:24:33;10.18;;;3.53;;
29662;SDS011;16578;53.266;7.920;2022-11-25T05:26:59;12.40;;;3.85;;
29662;SDS011;16578;53.266;7.920;2022-11-25T05:29:24;14.77;;;3.83;;
29662;SDS011;16578;53.266;7.920;2022-11-25T05:31:50;9.70;;;3.30;;
29662;SDS011;16578;53.266;7.920;2022-11-25T05:34:15;10.50;;;3.67;;
29662;SDS011;16578;53.266;7.920;2022-11-25T05:36:41;15.73;;;4.18;;
29662;SDS011;16578;53.266;7.920;2022-11-25T05:39:06;11.02;;;3.40;;
29662;SDS011;16578;53.266;7.920;2022-11-25T05:41:32;9.60;;;3.60;;
29662;SDS011;16578;53.266;7.920;2022-11-25T05:43:57;9.82;;;3.83;;
29662;SDS011;16578;53.266;7.920;2022-11-25T05:46:23;10.30;;;3.72;;
29662;SDS011;16578;53.266;7.920;2022-11-25T05:48:51;12.02;;;3.97;;
29662;SDS011;16578;53.266;7.920;2022-11-25T05:51:18;9.45;;;3.30;;
29662;SDS011;16578;53.266;7.920;2022-11-25T05:53:43;9.27;;;3.60;;
29662;SDS011;16578;53.266;7.920;2022-11-25T05:56:09;9.07;;;3.65;;
29662;SDS011;16578;53.266;7.920;2022-11-25T05:58:35;9.82;;;3.97;;
29662;SDS011;16578;53.266;7.920;2022-11-25T06:01:04;10.95;;;4.60;;
29662;SDS011;16578;53.266;7.920;2022-11-25T06:03:31;11.70;;;3.67;;
29662;SDS011;16578;53.266;7.920;2022-11-25T06:05:58;10.25;;;3.50;;
29662;SDS011;16578;53.266;7.920;2022-11-25T06:08:24;13.48;;;4.43;;
29662;SDS011;16578;53.266;7.920;2022-11-25T06:10:50;10.93;;;4.38;;
29662;SDS011;16578;53.266;7.920;2022-11-25T06:13:15;11.60;;;3.90;;
29662;SDS011;16578;53.266;7.920;2022-11-25T06:15:41;9.82;;;3.40;;
29662;SDS011;16578;53.266;7.920;2022-11-25T06:18:09;10.25;;;4.05;;
29662;SDS011;16578;53.266;7.920;2022-11-25T06:20:35;14.05;;;4.32;;
29662;SDS011;16578;53.266;7.920;2022-11-25T06:23:01;9.50;;;3.72;;
29662;SDS011;16578;53.266;7.920;2022-11-25T06:25:27;10.13;;;3.40;;
29662;SDS011;16578;53.266;7.920;2022-11-25T06:27:53;8.48;;;2.92;;
29662;SDS011;16578;53.266;7.920;2022-11-25T06:30:19;8.13;;;3.30;;
29662;SDS011;16578;53.266;7.920;2022-11-25T06:32:44;7.45;;;2.95;;
29662;SDS011;16578;53.266;7.920;2022-11-25T06:35:10;10.00;;;3.42;;
29662;SDS011;16578;53.266;7.920;2022-11-25T06:37:36;12.93;;;4.10;;
29662;SDS011;16578;53.266;7.920;2022-11-25T06:40:02;9.50;;;3.70;;
29662;SDS011;16578;53.266;7.920;2022-11-25T06:42:29;12.93;;;3.15;;
29662;SDS011;16578;53.266;7.920;2022-11-25T06:44:55;12.13;;;4.75;;
29662;SDS011;16578;53.266;7.920;2022-11-25T06:47:20;13.18;;;4.40;;
29662;SDS011;16578;53.266;7.920;2022-11-25T06:49:46;9.20;;;3.05;;
29662;SDS011;16578;53.266;7.920;2022-11-25T06:52:12;11.73;;;3.83;;
29662;SDS011;16578;53.266;7.920;2022-11-25T06:54:37;11.95;;;4.18;;
29662;SDS011;16578;53.266;7.920;2022-11-25T06:57:05;8.55;;;3.67;;
29662;SDS011;16578;53.266;7.920;2022-11-25T06:59:32;14.10;;;4.55;;
29662;SDS011;16578;53.266;7.920;2022-11-25T07:01:58;13.80;;;4.95;;
29662;SDS011;16578;53.266;7.920;2022-11-25T07:04:23;9.75;;;4.05;;
29662;SDS011;16578;53.266;7.920;2022-11-25T07:06:49;8.77;;;3.38;;
29662;SDS011;16578;53.266;7.920;2022-11-25T07:09:14;10.82;;;4.03;;
29662;SDS011;16578;53.266;7.920;2022-11-25T07:11:40;10.82;;;4.47;;
29662;SDS011;16578;53.266;7.920;2022-11-25T07:14:10;16.27;;;5.60;;
29662;SDS011;16578;53.266;7.920;2022-11-25T07:16:38;15.95;;;5.07;;
29662;SDS011;16578;53.266;7.920;2022-11-25T07:19:05;12.82;;;5.57;;
29662;SDS011;16578;53.266;7.920;2022-11-25T07:21:32;14.52;;;4.68;;
29662;SDS011;16578;53.266;7.920;2022-11-25T07:24:00;12.00;;;5.43;;
29662;SDS011;16578;53.266;7.920;2022-11-25T07:26:29;9.95;;;4.25;;
29662;SDS011;16578;53.266;7.920;2022-11-25T07:28:58;12.23;;;4.38;;
29662;SDS011;16578;53.266;7.920;2022-11-25T07:31:26;12.77;;;3.58;;
29662;SDS011;16578;53.266;7.920;2022-11-25T07:33:54;13.43;;;4.70;;
29662;SDS011;16578;53.266;7.920;2022-11-25T07:36:21;12.27;;;4.78;;
29662;SDS011;16578;53.266;7.920;2022-11-25T07:38:47;12.35;;;5.53;;
29662;SDS011;16578;53.266;7.920;2022-11-25T07:41:18;12.57;;;5.18;;
29662;SDS011;16578;53.266;7.920;2022-11-25T07:43:46;14.32;;;5.78;;
29662;SDS011;16578;53.266;7.920;2022-11-25T07:46:17;14.18;;;5.20;;
29662;SDS011;16578;53.266;7.920;2022-11-25T07:48:49;8.20;;;4.80;;
29662;SDS011;16578;53.266;7.920;2022-11-25T07:53:45;12.15;;;5.50;;
29662;SDS011;16578;53.266;7.920;2022-11-25T07:56:12;10.60;;;6.20;;
29662;SDS011;16578;53.266;7.920;2022-11-25T07:58:38;12.30;;;5.53;;
29662;SDS011;16578;53.266;7.920;2022-11-25T08:01:05;11.70;;;4.88;;
29662;SDS011;16578;53.266;7.920;2022-11-25T08:03:32;12.32;;;5.18;;
29662;SDS011;16578;53.266;7.920;2022-11-25T08:05:59;13.57;;;5.72;;
29662;SDS011;16578;53.266;7.920;2022-11-25T08:08:29;12.75;;;5.90;;
29662;SDS011;16578;53.266;7.920;2022-11-25T08:10:55;17.83;;;9.35;;
29662;SDS011;16578;53.266;7.920;2022-11-25T08:13:21;11.93;;;6.60;;
29662;SDS011;16578;53.266;7.920;2022-11-25T08:15:47;11.65;;;5.68;;
29662;SDS011;16578;53.266;7.920;2022-11-25T08:18:12;11.45;;;4.95;;
29662;SDS011;16578;53.266;7.920;2022-11-25T08:20:38;12.48;;;4.88;;
29662;SDS011;16578;53.266;7.920;2022-11-25T08:23:03;9.63;;;4.30;;
29662;SDS011;16578;53.266;7.920;2022-11-25T08:25:29;13.20;;;4.53;;
29662;SDS011;16578;53.266;7.920;2022-11-25T08:27:57;12.50;;;5.20;;
29662;SDS011;16578;53.266;7.920;2022-11-25T08:30:23;13.85;;;4.85;;
29662;SDS011;16578;53.266;7.920;2022-11-25T08:32:50;13.60;;;4.78;;
29662;SDS011;16578;53.266;7.920;2022-11-25T08:35:15;14.27;;;4.80;;
29662;SDS011;16578;53.266;7.920;2022-11-25T08:37:41;9.60;;;4.72;;
29662;SDS011;16578;53.266;7.920;2022-11-25T08:40:07;11.00;;;4.82;;
29662;SDS011;16578;53.266;7.920;2022-11-25T08:42:34;12.90;;;4.63;;
29662;SDS011;16578;53.266;7.920;2022-11-25T08:45:00;19.67;;;5.68;;
29662;SDS011;16578;53.266;7.920;2022-11-25T08:47:26;8.88;;;4.40;;
29662;SDS011;16578;53.266;7.920;2022-11-25T08:49:52;11.45;;;4.28;;
29662;SDS011;16578;53.266;7.920;2022-11-25T08:52:18;12.25;;;4.43;;
29662;SDS011;16578;53.266;7.920;2022-11-25T08:54:45;10.25;;;4.75;;
29662;SDS011;16578;53.266;7.920;2022-11-25T08:57:10;11.82;;;4.57;;
29662;SDS011;16578;53.266;7.920;2022-11-25T08:59:36;10.93;;;4.47;;
29662;SDS011;16578;53.266;7.920;2022-11-25T09:02:03;10.48;;;4.53;;
29662;SDS011;16578;53.266;7.920;2022-11-25T09:04:29;14.40;;;4.78;;
29662;SDS011;16578;53.266;7.920;2022-11-25T09:06:54;10.35;;;4.32;;
29662;SDS011;16578;53.266;7.920;2022-11-25T09:09:20;12.85;;;5.43;;
29662;SDS011;16578;53.266;7.920;2022-11-25T09:11:46;13.75;;;5.43;;
29662;SDS011;16578;53.266;7.920;2022-11-25T09:14:11;10.15;;;4.57;;
29662;SDS011;16578;53.266;7.920;2022-11-25T09:16:37;11.65;;;5.45;;
29662;SDS011;16578;53.266;7.920;2022-11-25T09:19:02;10.27;;;5.03;;
29662;SDS011;16578;53.266;7.920;2022-11-25T09:21:28;11.88;;;5.43;;
29662;SDS011;16578;53.266;7.920;2022-11-25T09:23:53;10.55;;;5.60;;
29662;SDS011;16578;53.266;7.920;2022-11-25T09:26:23;14.18;;;5.70;;
29662;SDS011;16578;53.266;7.920;2022-11-25T09:28:51;24.58;;;12.27;;
29662;SDS011;16578;53.266;7.920;2022-11-25T09:31:17;24.98;;;12.60;;
29662;SDS011;16578;53.266;7.920;2022-11-25T09:33:43;28.27;;;16.02;;
29662;SDS011;16578;53.266;7.920;2022-11-25T09:36:10;21.77;;;12.00;;
29662;SDS011;16578;53.266;7.920;2022-11-25T09:38:37;23.10;;;11.97;;
29662;SDS011;16578;53.266;7.920;2022-11-25T09:41:04;21.25;;;11.40;;
29662;SDS011;16578;53.266;7.920;2022-11-25T09:54:29;11.25;;;4.28;;
29662;SDS011;16578;53.266;7.920;2022-11-25T10:02:32;11.23;;;5.88;;
29662;SDS011;16578;53.266;7.920;2022-11-25T10:07:52;11.80;;;6.05;;
29662;SDS011;16578;53.266;7.920;2022-11-25T10:10:25;14.43;;;6.40;;
29662;SDS011;16578;53.266;7.920;2022-11-25T10:12:55;11.65;;;5.22;;
29662;SDS011;16578;53.266;7.920;2022-11-25T10:15:27;10.82;;;4.95;;
29662;SDS011;16578;53.266;7.920;2022-11-25T10:17:58;10.60;;;5.13;;
29662;SDS011;16578;53.266;7.920;2022-11-25T10:20:30;10.45;;;4.28;;
29662;SDS011;16578;53.266;7.920;2022-11-25T10:23:01;12.75;;;5.45;;
29662;SDS011;16578;53.266;7.920;2022-11-25T10:25:30;9.20;;;4.85;;
29662;SDS011;16578;53.266;7.920;2022-11-25T10:30:49;13.52;;;6.70;;
29662;SDS011;16578;53.266;7.920;2022-11-25T10:33:33;14.95;;;6.13;;
29662;SDS011;16578;53.266;7.920;2022-11-25T10:36:13;11.98;;;5.28;;
29662;SDS011;16578;53.266;7.920;2022-11-25T10:38:56;9.60;;;5.72;;
29662;SDS011;16578;53.266;7.920;2022-11-25T10:41:33;12.50;;;6.32;;
29662;SDS011;16578;53.266;7.920;2022-11-25T10:44:11;10.18;;;5.68;;
29662;SDS011;16578;53.266;7.920;2022-11-25T10:46:52;11.48;;;6.40;;
29662;SDS011;16578;53.266;7.920;2022-11-25T10:52:26;10.02;;;5.10;;
29662;SDS011;16578;53.266;7.920;2022-11-25T10:54:57;10.10;;;6.45;;
29662;SDS011;16578;53.266;7.920;2022-11-25T10:57:37;12.27;;;5.80;;
29662;SDS011;16578;53.266;7.920;2022-11-25T11:00:03;11.82;;;6.25;;
29662;SDS011;16578;53.266;7.920;2022-11-25T11:02:40;11.48;;;5.38;;
29662;SDS011;16578;53.266;7.920;2022-11-25T11:07:41;12.32;;;6.72;;
29662;SDS011;16578;53.266;7.920;2022-11-25T11:15:25;12.88;;;7.18;;
29662;SDS011;16578;53.266;7.920;2022-11-25T11:20:46;12.00;;;6.28;;
29662;SDS011;16578;53.266;7.920;2022-11-25T11:23:14;10.45;;;7.45;;
29662;SDS011;16578;53.266;7.920;2022-11-25T11:25:41;11.98;;;6.53;;
29662;SDS011;16578;53.266;7.920;2022-11-25T11:28:25;11.57;;;6.22;;
29662;SDS011;16578;53.266;7.920;2022-11-25T11:30:57;15.15;;;6.35;;
29662;SDS011;16578;53.266;7.920;2022-11-25T11:39:08;12.40;;;6.80;;
29662;SDS011;16578;53.266;7.920;2022-11-25T11:41:44;14.38;;;6.75;;
29662;SDS011;16578;53.266;7.920;2022-11-25T11:44:40;12.70;;;6.40;;
29662;SDS011;16578;53.266;7.920;2022-11-25T11:50:11;15.50;;;7.10;;
29662;SDS011;16578;53.266;7.920;2022-11-25T11:52:46;14.00;;;7.20;;
29662;SDS011;16578;53.266;7.920;2022-11-25T12:03:37;13.18;;;6.93;;
29662;SDS011;16578;53.266;7.920;2022-11-25T12:06:07;13.57;;;6.72;;
29662;SDS011;16578;53.266;7.920;2022-11-25T12:11:34;12.13;;;6.70;;
29662;SDS011;16578;53.266;7.920;2022-11-25T12:14:04;20.20;;;7.22;;
29662;SDS011;16578;53.266;7.920;2022-11-25T12:16:44;12.77;;;6.15;;
29662;SDS011;16578;53.266;7.920;2022-11-25T12:19:32;7.30;;;5.22;;
29662;SDS011;16578;53.266;7.920;2022-11-25T12:22:23;10.55;;;6.70;;
29662;SDS011;16578;53.266;7.920;2022-11-25T12:24:59;10.27;;;6.38;;
29662;SDS011;16578;53.266;7.920;2022-11-25T12:27:33;10.90;;;6.13;;
29662;SDS011;16578;53.266;7.920;2022-11-25T12:30:05;11.43;;;5.75;;
29662;SDS011;16578;53.266;7.920;2022-11-25T12:35:42;11.43;;;5.70;;
29662;SDS011;16578;53.266;7.920;2022-11-25T12:38:27;8.02;;;5.35;;
29662;SDS011;16578;53.266;7.920;2022-11-25T12:41:22;14.63;;;6.18;;
29662;SDS011;16578;53.266;7.920;2022-11-25T12:46:53;12.20;;;4.95;;
29662;SDS011;16578;53.266;7.920;2022-11-25T12:49:21;13.40;;;6.33;;
29662;SDS011;16578;53.266;7.920;2022-11-25T12:52:02;12.23;;;5.40;;
29662;SDS011;16578;53.266;7.920;2022-11-25T13:10:59;21.92;;;5.35;;
29662;SDS011;16578;53.266;7.920;2022-11-25T13:16:22;12.93;;;5.65;;
29662;SDS011;16578;53.266;7.920;2022-11-25T13:18:48;13.88;;;5.88;;
29662;SDS011;16578;53.266;7.920;2022-11-25T13:21:15;11.75;;;5.53;;
29662;SDS011;16578;53.266;7.920;2022-11-25T13:28:58;12.52;;;4.00;;
29662;SDS011;16578;53.266;7.920;2022-11-25T13:31:56;7.50;;;3.30;;
29662;SDS011;16578;53.266;7.920;2022-11-25T13:34:48;10.85;;;4.20;;
29662;SDS011;16578;53.266;7.920;2022-11-25T13:42:56;8.07;;;3.15;;
29662;SDS011;16578;53.266;7.920;2022-11-25T13:48:05;11.00;;;4.25;;
29662;SDS011;16578;53.266;7.920;2022-11-25T13:50:40;11.60;;;4.05;;
29662;SDS011;16578;53.266;7.920;2022-11-25T13:53:30;10.88;;;4.00;;
29662;SDS011;16578;53.266;7.920;2022-11-25T13:59:29;12.77;;;3.78;;
29662;SDS011;16578;53.266;7.920;2022-11-25T14:04:10;10.27;;;4.15;;
29662;SDS011;16578;53.266;7.920;2022-11-25T14:06:54;8.13;;;3.33;;
29662;SDS011;16578;53.266;7.920;2022-11-25T14:14:45;10.93;;;3.92;;
29662;SDS011;16578;53.266;7.920;2022-11-25T14:17:25;9.15;;;3.20;;
29662;SDS011;16578;53.266;7.920;2022-11-25T14:26:02;11.18;;;4.18;;
29662;SDS011;16578;53.266;7.920;2022-11-25T14:28:32;11.80;;;4.07;;
29662;SDS011;16578;53.266;7.920;2022-11-25T14:31:07;12.85;;;4.28;;
29662;SDS011;16578;53.266;7.920;2022-11-25T14:33:37;10.80;;;4.15;;
29662;SDS011;16578;53.266;7.920;2022-11-25T14:36:18;8.85;;;3.40;;
29662;SDS011;16578;53.266;7.920;2022-11-25T14:39:03;11.50;;;4.53;;
29662;SDS011;16578;53.266;7.920;2022-11-25T14:41:36;11.75;;;4.20;;
29662;SDS011;16578;53.266;7.920;2022-11-25T14:44:10;13.27;;;4.30;;
29662;SDS011;16578;53.266;7.920;2022-11-25T14:46:50;9.68;;;4.15;;
29662;SDS011;16578;53.266;7.920;2022-11-25T14:49:21;11.68;;;3.97;;
29662;SDS011;16578;53.266;7.920;2022-11-25T14:51:47;8.95;;;3.63;;
29662;SDS011;16578;53.266;7.920;2022-11-25T14:54:15;11.10;;;4.35;;
29662;SDS011;16578;53.266;7.920;2022-11-25T14:56:44;7.78;;;3.00;;
29662;SDS011;16578;53.266;7.920;2022-11-25T14:59:11;12.27;;;3.85;;
29662;SDS011;16578;53.266;7.920;2022-11-25T15:01:38;13.52;;;4.10;;
29662;SDS011;16578;53.266;7.920;2022-11-25T15:04:18;9.00;;;3.92;;
29662;SDS011;16578;53.266;7.920;2022-11-25T15:06:50;14.48;;;3.95;;
29662;SDS011;16578;53.266;7.920;2022-11-25T15:11:50;9.55;;;4.15;;
29662;SDS011;16578;53.266;7.920;2022-11-25T15:14:24;10.30;;;4.85;;
29662;SDS011;16578;53.266;7.920;2022-11-25T15:16:55;9.40;;;4.57;;
29662;SDS011;16578;53.266;7.920;2022-11-25T15:19:23;9.38;;;3.92;;
29662;SDS011;16578;53.266;7.920;2022-11-25T15:21:53;13.48;;;4.40;;
29662;SDS011;16578;53.266;7.920;2022-11-25T15:24:23;13.07;;;4.47;;
29662;SDS011;16578;53.266;7.920;2022-11-25T15:29:17;9.25;;;3.80;;
29662;SDS011;16578;53.266;7.920;2022-11-25T15:31:44;8.43;;;3.67;;
29662;SDS011;16578;53.266;7.920;2022-11-25T15:34:12;8.27;;;3.28;;
29662;SDS011;16578;53.266;7.920;2022-11-25T15:36:39;8.45;;;3.15;;
29662;SDS011;16578;53.266;7.920;2022-11-25T15:41:51;10.45;;;3.83;;
29662;SDS011;16578;53.266;7.920;2022-11-25T15:46:56;6.95;;;4.05;;
29662;SDS011;16578;53.266;7.920;2022-11-25T15:49:29;11.02;;;5.00;;
29662;SDS011;16578;53.266;7.920;2022-11-25T15:51:58;12.77;;;4.45;;
29662;SDS011;16578;53.266;7.920;2022-11-25T15:54:37;13.73;;;4.95;;
29662;SDS011;16578;53.266;7.920;2022-11-25T15:57:13;12.57;;;4.47;;
29662;SDS011;16578;53.266;7.920;2022-11-25T16:07:53;8.25;;;4.28;;
29662;SDS011;16578;53.266;7.920;2022-11-25T16:10:32;11.10;;;4.15;;
29662;SDS011;16578;53.266;7.920;2022-11-25T16:19:11;13.38;;;5.47;;
29662;SDS011;16578;53.266;7.920;2022-11-25T16:29:28;14.55;;;5.38;;
29662;SDS011;16578;53.266;7.920;2022-11-25T16:31:55;10.27;;;4.85;;
29662;SDS011;16578;53.266;7.920;2022-11-25T16:34:20;13.93;;;5.07;;
29662;SDS011;16578;53.266;7.920;2022-11-25T16:36:48;14.40;;;5.18;;
29662;SDS011;16578;53.266;7.920;2022-11-25T16:39:14;13.27;;;4.47;;
29662;SDS011;16578;53.266;7.920;2022-11-25T16:41:39;8.52;;;4.13;;
29662;SDS011;16578;53.266;7.920;2022-11-25T16:44:16;14.85;;;5.28;;
29662;SDS011;16578;53.266;7.920;2022-11-25T16:46:43;11.50;;;5.15;;
29662;SDS011;16578;53.266;7.920;2022-11-25T16:49:12;18.63;;;5.22;;
29662;SDS011;16578;53.266;7.920;2022-11-25T16:51:39;14.57;;;5.15;;
29662;SDS011;16578;53.266;7.920;2022-11-25T16:54:04;13.45;;;4.65;;
29662;SDS011;16578;53.266;7.920;2022-11-25T16:56:30;9.07;;;5.05;;
29662;SDS011;16578;53.266;7.920;2022-11-25T16:58:58;11.80;;;4.60;;
29662;SDS011;16578;53.266;7.920;2022-11-25T17:01:24;11.93;;;4.40;;
29662;SDS011;16578;53.266;7.920;2022-11-25T17:06:19;9.43;;;4.60;;
29662;SDS011;16578;53.266;7.920;2022-11-25T17:08:46;11.15;;;4.85;;
29662;SDS011;16578;53.266;7.920;2022-11-25T17:11:13;14.82;;;6.05;;
29662;SDS011;16578;53.266;7.920;2022-11-25T17:13:43;9.68;;;4.50;;
29662;SDS011;16578;53.266;7.920;2022-11-25T17:16:12;15.80;;;5.18;;
29662;SDS011;16578;53.266;7.920;2022-11-25T17:18:41;13.52;;;5.03;;
29662;SDS011;16578;53.266;7.920;2022-11-25T17:21:08;20.25;;;6.35;;
29662;SDS011;16578;53.266;7.920;2022-11-25T17:23:37;16.52;;;6.18;;
29662;SDS011;16578;53.266;7.920;2022-11-25T17:26:02;11.50;;;5.20;;